Terminal Aerodrome Forecast
Issued by NWS

Home | Current Version | Previous Version | Text Only | Print | Product List | Glossary On
Versions: 1 2 3 4 5 6 7 8 9 10 11 12 13 14 15 16 17 18 19 20 21 22 23
000
FTUS43 KJKL 251500 AAB
TAFSME
TAF AMD
KSME 251521Z 2515/2612 VRB03KT P6SM BKN004 OVC010
     FM251600 VRB05KT P6SM SCT007 BKN012
     FM251630 VRB05KT P6SM SCT020
     FM260700 VRB03KT 3SM BR SCT100=

USA.gov is the U.S. government's official web portal to all federal, state and local government web resources and services.